sensor_id;sensor_type;location;lat;lon;timestamp;temperature;humidity
45549;DHT22;31270;48.328;10.096;2024-02-28T00:01:19;6.70;99.90
45549;DHT22;31270;48.328;10.096;2024-02-28T00:03:44;6.60;99.90
45549;DHT22;31270;48.328;10.096;2024-02-28T00:06:10;6.60;99.90
45549;DHT22;31270;48.328;10.096;2024-02-28T00:08:42;6.60;99.90
45549;DHT22;31270;48.328;10.096;2024-02-28T00:11:07;6.60;99.90
45549;DHT22;31270;48.328;10.096;2024-02-28T00:13:33;6.50;99.90
45549;DHT22;31270;48.328;10.096;2024-02-28T00:15:59;6.50;99.90
45549;DHT22;31270;48.328;10.096;2024-02-28T00:18:24;6.50;99.90
45549;DHT22;31270;48.328;10.096;2024-02-28T00:20:50;6.50;99.90
45549;DHT22;31270;48.328;10.096;2024-02-28T00:23:15;6.40;99.90
45549;DHT22;31270;48.328;10.096;2024-02-28T00:25:41;6.50;99.90
45549;DHT22;31270;48.328;10.096;2024-02-28T00:28:07;6.40;99.90
45549;DHT22;31270;48.328;10.096;2024-02-28T00:30:32;6.50;99.90
45549;DHT22;31270;48.328;10.096;2024-02-28T00:32:59;6.40;99.90
45549;DHT22;31270;48.328;10.096;2024-02-28T00:35:25;6.40;99.90
45549;DHT22;31270;48.328;10.096;2024-02-28T00:37:51;6.40;99.90
45549;DHT22;31270;48.328;10.096;2024-02-28T00:40:16;6.40;99.90
45549;DHT22;31270;48.328;10.096;2024-02-28T00:42:42;6.40;99.90
45549;DHT22;31270;48.328;10.096;2024-02-28T00:45:09;6.40;99.90
45549;DHT22;31270;48.328;10.096;2024-02-28T00:47:35;6.40;99.90
45549;DHT22;31270;48.328;10.096;2024-02-28T00:50:01;6.40;99.90
45549;DHT22;31270;48.328;10.096;2024-02-28T00:52:29;6.40;99.90
45549;DHT22;31270;48.328;10.096;2024-02-28T00:54:55;6.30;99.90
45549;DHT22;31270;48.328;10.096;2024-02-28T00:57:20;6.30;99.90
45549;DHT22;31270;48.328;10.096;2024-02-28T00:59:46;6.30;99.90
45549;DHT22;31270;48.328;10.096;2024-02-28T01:02:12;6.20;99.90
45549;DHT22;31270;48.328;10.096;2024-02-28T01:04:39;6.20;99.90
45549;DHT22;31270;48.328;10.096;2024-02-28T01:07:05;6.20;99.90
45549;DHT22;31270;48.328;10.096;2024-02-28T01:09:31;6.10;99.90
45549;DHT22;31270;48.328;10.096;2024-02-28T01:11:57;6.10;99.90
45549;DHT22;31270;48.328;10.096;2024-02-28T01:14:22;6.10;99.90
45549;DHT22;31270;48.328;10.096;2024-02-28T01:16:48;6.10;99.90
45549;DHT22;31270;48.328;10.096;2024-02-28T01:19:15;6.10;99.90
45549;DHT22;31270;48.328;10.096;2024-02-28T01:21:41;6.10;99.90
45549;DHT22;31270;48.328;10.096;2024-02-28T01:24:07;6.10;99.90
45549;DHT22;31270;48.328;10.096;2024-02-28T01:26:32;6.00;99.90
45549;DHT22;31270;48.328;10.096;2024-02-28T01:28:58;6.10;99.90
45549;DHT22;31270;48.328;10.096;2024-02-28T01:31:24;6.10;99.90
45549;DHT22;31270;48.328;10.096;2024-02-28T01:33:49;6.00;99.90
45549;DHT22;31270;48.328;10.096;2024-02-28T01:36:15;6.10;99.90
45549;DHT22;31270;48.328;10.096;2024-02-28T01:38:40;6.10;99.90
45549;DHT22;31270;48.328;10.096;2024-02-28T01:41:06;6.10;99.90
45549;DHT22;31270;48.328;10.096;2024-02-28T01:43:32;6.10;99.90
45549;DHT22;31270;48.328;10.096;2024-02-28T01:46:01;6.00;99.90
45549;DHT22;31270;48.328;10.096;2024-02-28T01:48:29;6.00;99.90
45549;DHT22;31270;48.328;10.096;2024-02-28T01:50:55;6.00;99.90
45549;DHT22;31270;48.328;10.096;2024-02-28T01:53:21;6.00;99.90
45549;DHT22;31270;48.328;10.096;2024-02-28T01:55:47;6.00;99.90
45549;DHT22;31270;48.328;10.096;2024-02-28T01:58:13;5.90;99.90
45549;DHT22;31270;48.328;10.096;2024-02-28T02:00:39;5.90;99.90
45549;DHT22;31270;48.328;10.096;2024-02-28T02:03:05;6.00;99.90
45549;DHT22;31270;48.328;10.096;2024-02-28T02:05:37;5.90;99.90
45549;DHT22;31270;48.328;10.096;2024-02-28T02:08:03;5.90;99.90
45549;DHT22;31270;48.328;10.096;2024-02-28T02:10:28;5.90;99.90
45549;DHT22;31270;48.328;10.096;2024-02-28T02:12:54;5.90;99.90
45549;DHT22;31270;48.328;10.096;2024-02-28T02:15:20;5.80;99.90
45549;DHT22;31270;48.328;10.096;2024-02-28T02:17:45;5.80;99.90
45549;DHT22;31270;48.328;10.096;2024-02-28T02:20:14;5.80;99.90
45549;DHT22;31270;48.328;10.096;2024-02-28T02:22:40;5.90;99.90
45549;DHT22;31270;48.328;10.096;2024-02-28T02:25:06;5.90;99.90
45549;DHT22;31270;48.328;10.096;2024-02-28T02:27:31;5.90;99.90
45549;DHT22;31270;48.328;10.096;2024-02-28T02:29:57;6.00;99.90
45549;DHT22;31270;48.328;10.096;2024-02-28T02:32:23;6.00;99.90
45549;DHT22;31270;48.328;10.096;2024-02-28T02:34:49;6.00;99.90
45549;DHT22;31270;48.328;10.096;2024-02-28T02:37:14;6.10;99.90
45549;DHT22;31270;48.328;10.096;2024-02-28T02:39:40;6.10;99.90
45549;DHT22;31270;48.328;10.096;2024-02-28T02:42:06;6.00;99.90
45549;DHT22;31270;48.328;10.096;2024-02-28T02:44:32;6.00;99.90
45549;DHT22;31270;48.328;10.096;2024-02-28T02:46:58;6.00;99.90
45549;DHT22;31270;48.328;10.096;2024-02-28T02:49:23;6.00;99.90
45549;DHT22;31270;48.328;10.096;2024-02-28T02:51:49;6.00;99.90
45549;DHT22;31270;48.328;10.096;2024-02-28T02:54:15;5.90;99.90
45549;DHT22;31270;48.328;10.096;2024-02-28T02:56:43;5.90;99.90
45549;DHT22;31270;48.328;10.096;2024-02-28T02:59:12;5.90;99.90
45549;DHT22;31270;48.328;10.096;2024-02-28T03:01:38;5.90;99.90
45549;DHT22;31270;48.328;10.096;2024-02-28T03:04:04;5.90;99.90
45549;DHT22;31270;48.328;10.096;2024-02-28T03:06:29;6.00;99.90
45549;DHT22;31270;48.328;10.096;2024-02-28T03:08:55;6.00;99.90
45549;DHT22;31270;48.328;10.096;2024-02-28T03:11:21;6.00;99.90
45549;DHT22;31270;48.328;10.096;2024-02-28T03:13:46;6.00;99.90
45549;DHT22;31270;48.328;10.096;2024-02-28T03:16:12;6.00;99.90
45549;DHT22;31270;48.328;10.096;2024-02-28T03:18:37;6.10;99.90
45549;DHT22;31270;48.328;10.096;2024-02-28T03:21:03;6.10;99.90
45549;DHT22;31270;48.328;10.096;2024-02-28T03:23:29;6.10;99.90
45549;DHT22;31270;48.328;10.096;2024-02-28T03:25:54;6.10;99.90
45549;DHT22;31270;48.328;10.096;2024-02-28T03:28:20;6.00;99.90
45549;DHT22;31270;48.328;10.096;2024-02-28T03:30:46;6.00;99.90
45549;DHT22;31270;48.328;10.096;2024-02-28T03:33:11;6.00;99.90
45549;DHT22;31270;48.328;10.096;2024-02-28T03:35:37;6.00;99.90
45549;DHT22;31270;48.328;10.096;2024-02-28T03:38:02;6.00;99.90
45549;DHT22;31270;48.328;10.096;2024-02-28T03:40:28;6.00;99.90
45549;DHT22;31270;48.328;10.096;2024-02-28T03:42:54;6.00;99.90
45549;DHT22;31270;48.328;10.096;2024-02-28T03:45:19;6.00;99.90
45549;DHT22;31270;48.328;10.096;2024-02-28T03:47:45;6.00;99.90
45549;DHT22;31270;48.328;10.096;2024-02-28T03:50:10;5.90;99.90
45549;DHT22;31270;48.328;10.096;2024-02-28T03:52:36;5.90;99.90
45549;DHT22;31270;48.328;10.096;2024-02-28T03:55:02;5.80;99.90
45549;DHT22;31270;48.328;10.096;2024-02-28T03:57:28;5.80;99.90
45549;DHT22;31270;48.328;10.096;2024-02-28T03:59:54;5.80;99.90
45549;DHT22;31270;48.328;10.096;2024-02-28T04:02:19;5.70;99.90
45549;DHT22;31270;48.328;10.096;2024-02-28T04:04:45;5.70;99.90
45549;DHT22;31270;48.328;10.096;2024-02-28T04:07:11;5.70;99.90
45549;DHT22;31270;48.328;10.096;2024-02-28T04:09:36;5.70;99.90
45549;DHT22;31270;48.328;10.096;2024-02-28T04:12:02;5.70;99.90
45549;DHT22;31270;48.328;10.096;2024-02-28T04:14:28;5.70;99.90
45549;DHT22;31270;48.328;10.096;2024-02-28T04:16:54;5.70;99.90
45549;DHT22;31270;48.328;10.096;2024-02-28T04:19:19;5.60;99.90
45549;DHT22;31270;48.328;10.096;2024-02-28T04:21:45;5.60;99.90
45549;DHT22;31270;48.328;10.096;2024-02-28T04:24:11;5.60;99.90
45549;DHT22;31270;48.328;10.096;2024-02-28T04:26:36;5.70;99.90
45549;DHT22;31270;48.328;10.096;2024-02-28T04:29:02;5.70;99.90
45549;DHT22;31270;48.328;10.096;2024-02-28T04:31:33;5.70;99.90
45549;DHT22;31270;48.328;10.096;2024-02-28T04:33:58;5.70;99.90
45549;DHT22;31270;48.328;10.096;2024-02-28T04:36:24;5.70;99.90
45549;DHT22;31270;48.328;10.096;2024-02-28T04:38:49;5.70;99.90
45549;DHT22;31270;48.328;10.096;2024-02-28T04:41:15;5.70;99.90
45549;DHT22;31270;48.328;10.096;2024-02-28T04:43:41;5.70;99.90
45549;DHT22;31270;48.328;10.096;2024-02-28T04:46:06;5.70;99.90
45549;DHT22;31270;48.328;10.096;2024-02-28T04:48:32;5.70;99.90
45549;DHT22;31270;48.328;10.096;2024-02-28T04:50:59;5.70;99.90
45549;DHT22;31270;48.328;10.096;2024-02-28T04:53:24;5.70;99.90
45549;DHT22;31270;48.328;10.096;2024-02-28T04:55:52;5.70;99.90
45549;DHT22;31270;48.328;10.096;2024-02-28T04:58:18;5.80;99.90
45549;DHT22;31270;48.328;10.096;2024-02-28T05:00:43;5.80;99.90
45549;DHT22;31270;48.328;10.096;2024-02-28T05:03:09;5.80;99.90
45549;DHT22;31270;48.328;10.096;2024-02-28T05:05:35;5.70;99.90
45549;DHT22;31270;48.328;10.096;2024-02-28T05:08:01;5.70;99.90
45549;DHT22;31270;48.328;10.096;2024-02-28T05:10:27;5.70;99.90
45549;DHT22;31270;48.328;10.096;2024-02-28T05:12:52;5.70;99.90
45549;DHT22;31270;48.328;10.096;2024-02-28T05:15:18;5.60;99.90
45549;DHT22;31270;48.328;10.096;2024-02-28T05:17:44;5.60;99.90
45549;DHT22;31270;48.328;10.096;2024-02-28T05:20:11;5.60;99.90
45549;DHT22;31270;48.328;10.096;2024-02-28T05:22:36;5.60;99.90
45549;DHT22;31270;48.328;10.096;2024-02-28T05:25:02;5.60;99.90
45549;DHT22;31270;48.328;10.096;2024-02-28T05:27:28;5.60;99.90
45549;DHT22;31270;48.328;10.096;2024-02-28T05:29:54;5.60;99.90
45549;DHT22;31270;48.328;10.096;2024-02-28T05:32:19;5.60;99.90
45549;DHT22;31270;48.328;10.096;2024-02-28T05:34:46;5.50;99.90
45549;DHT22;31270;48.328;10.096;2024-02-28T05:37:12;5.50;99.90
45549;DHT22;31270;48.328;10.096;2024-02-28T05:39:37;5.40;99.90
45549;DHT22;31270;48.328;10.096;2024-02-28T05:42:03;5.40;99.90
45549;DHT22;31270;48.328;10.096;2024-02-28T05:44:29;5.40;99.90
45549;DHT22;31270;48.328;10.096;2024-02-28T05:46:55;5.40;99.90
45549;DHT22;31270;48.328;10.096;2024-02-28T05:49:20;5.40;99.90
45549;DHT22;31270;48.328;10.096;2024-02-28T05:51:54;5.40;99.90
45549;DHT22;31270;48.328;10.096;2024-02-28T05:54:19;5.50;99.90
45549;DHT22;31270;48.328;10.096;2024-02-28T05:56:45;5.40;99.90
45549;DHT22;31270;48.328;10.096;2024-02-28T05:59:10;5.30;99.90
45549;DHT22;31270;48.328;10.096;2024-02-28T06:01:36;5.30;99.90
45549;DHT22;31270;48.328;10.096;2024-02-28T06:04:03;5.30;99.90
45549;DHT22;31270;48.328;10.096;2024-02-28T06:06:29;5.30;99.90
45549;DHT22;31270;48.328;10.096;2024-02-28T06:08:54;5.30;99.90
45549;DHT22;31270;48.328;10.096;2024-02-28T06:11:21;5.30;99.90
45549;DHT22;31270;48.328;10.096;2024-02-28T06:13:47;5.30;99.90
45549;DHT22;31270;48.328;10.096;2024-02-28T06:16:15;5.30;99.90
45549;DHT22;31270;48.328;10.096;2024-02-28T06:18:41;5.30;99.90
45549;DHT22;31270;48.328;10.096;2024-02-28T06:21:13;5.30;99.90
45549;DHT22;31270;48.328;10.096;2024-02-28T06:23:39;5.30;99.90
45549;DHT22;31270;48.328;10.096;2024-02-28T06:26:05;5.40;99.90
45549;DHT22;31270;48.328;10.096;2024-02-28T06:28:30;5.40;99.90
45549;DHT22;31270;48.328;10.096;2024-02-28T06:30:57;5.40;99.90
45549;DHT22;31270;48.328;10.096;2024-02-28T06:33:23;5.40;99.90
45549;DHT22;31270;48.328;10.096;2024-02-28T06:35:49;5.40;99.90
45549;DHT22;31270;48.328;10.096;2024-02-28T06:38:14;5.40;99.90
45549;DHT22;31270;48.328;10.096;2024-02-28T06:40:40;5.30;99.90
45549;DHT22;31270;48.328;10.096;2024-02-28T06:43:07;5.30;99.90
45549;DHT22;31270;48.328;10.096;2024-02-28T06:45:32;5.30;99.90
45549;DHT22;31270;48.328;10.096;2024-02-28T06:47:58;5.30;99.90
45549;DHT22;31270;48.328;10.096;2024-02-28T06:50:24;5.30;99.90
45549;DHT22;31270;48.328;10.096;2024-02-28T06:52:49;5.30;99.90
45549;DHT22;31270;48.328;10.096;2024-02-28T06:55:15;5.30;99.90
45549;DHT22;31270;48.328;10.096;2024-02-28T06:57:42;5.40;99.90
45549;DHT22;31270;48.328;10.096;2024-02-28T07:00:09;5.50;99.90
45549;DHT22;31270;48.328;10.096;2024-02-28T07:02:35;5.40;99.90
45549;DHT22;31270;48.328;10.096;2024-02-28T07:05:01;5.50;99.90
45549;DHT22;31270;48.328;10.096;2024-02-28T07:07:28;5.50;99.90
45549;DHT22;31270;48.328;10.096;2024-02-28T07:09:54;5.50;99.90
45549;DHT22;31270;48.328;10.096;2024-02-28T07:12:20;5.40;99.90
45549;DHT22;31270;48.328;10.096;2024-02-28T07:14:45;5.50;99.90
45549;DHT22;31270;48.328;10.096;2024-02-28T07:17:11;5.40;99.90
45549;DHT22;31270;48.328;10.096;2024-02-28T07:19:37;5.40;99.90
45549;DHT22;31270;48.328;10.096;2024-02-28T07:22:03;5.40;99.90
45549;DHT22;31270;48.328;10.096;2024-02-28T07:24:32;5.40;99.90
45549;DHT22;31270;48.328;10.096;2024-02-28T07:26:58;5.40;99.90
45549;DHT22;31270;48.328;10.096;2024-02-28T07:29:24;5.40;99.90
45549;DHT22;31270;48.328;10.096;2024-02-28T07:31:50;5.40;99.90
45549;DHT22;31270;48.328;10.096;2024-02-28T07:34:15;5.40;99.90
45549;DHT22;31270;48.328;10.096;2024-02-28T07:36:41;5.40;99.90
45549;DHT22;31270;48.328;10.096;2024-02-28T07:39:07;5.50;99.90
45549;DHT22;31270;48.328;10.096;2024-02-28T07:41:32;5.50;99.90
45549;DHT22;31270;48.328;10.096;2024-02-28T07:43:58;5.50;99.90
45549;DHT22;31270;48.328;10.096;2024-02-28T07:46:24;5.60;99.90
45549;DHT22;31270;48.328;10.096;2024-02-28T07:48:50;5.60;99.90
45549;DHT22;31270;48.328;10.096;2024-02-28T07:51:15;5.60;99.90
45549;DHT22;31270;48.328;10.096;2024-02-28T07:53:42;5.60;99.90
45549;DHT22;31270;48.328;10.096;2024-02-28T07:56:16;5.60;99.90
45549;DHT22;31270;48.328;10.096;2024-02-28T07:58:42;5.70;99.90
45549;DHT22;31270;48.328;10.096;2024-02-28T08:01:08;5.70;99.90
45549;DHT22;31270;48.328;10.096;2024-02-28T08:03:34;5.60;99.90
45549;DHT22;31270;48.328;10.096;2024-02-28T08:06:00;5.50;99.90
45549;DHT22;31270;48.328;10.096;2024-02-28T08:08:26;5.50;99.90
45549;DHT22;31270;48.328;10.096;2024-02-28T08:10:51;5.50;99.90
45549;DHT22;31270;48.328;10.096;2024-02-28T08:13:18;5.50;99.90
45549;DHT22;31270;48.328;10.096;2024-02-28T08:15:44;5.40;99.90
45549;DHT22;31270;48.328;10.096;2024-02-28T08:18:09;5.40;99.90
45549;DHT22;31270;48.328;10.096;2024-02-28T08:20:37;5.50;99.90
45549;DHT22;31270;48.328;10.096;2024-02-28T08:23:06;5.60;99.90
45549;DHT22;31270;48.328;10.096;2024-02-28T08:25:32;5.60;99.90
45549;DHT22;31270;48.328;10.096;2024-02-28T08:27:58;5.60;99.90
45549;DHT22;31270;48.328;10.096;2024-02-28T08:30:24;5.50;99.90
45549;DHT22;31270;48.328;10.096;2024-02-28T08:32:50;5.50;99.90
45549;DHT22;31270;48.328;10.096;2024-02-28T08:35:18;5.50;99.90
45549;DHT22;31270;48.328;10.096;2024-02-28T08:37:43;5.50;99.90
45549;DHT22;31270;48.328;10.096;2024-02-28T08:40:10;5.60;99.90
45549;DHT22;31270;48.328;10.096;2024-02-28T08:42:36;5.70;99.90
45549;DHT22;31270;48.328;10.096;2024-02-28T08:45:02;5.70;99.90
45549;DHT22;31270;48.328;10.096;2024-02-28T08:47:29;5.80;99.90
45549;DHT22;31270;48.328;10.096;2024-02-28T08:49:54;5.70;99.90
45549;DHT22;31270;48.328;10.096;2024-02-28T08:52:21;5.80;99.90
45549;DHT22;31270;48.328;10.096;2024-02-28T08:54:47;5.80;99.90
45549;DHT22;31270;48.328;10.096;2024-02-28T08:57:13;5.90;99.90
45549;DHT22;31270;48.328;10.096;2024-02-28T08:59:38;6.00;99.90
45549;DHT22;31270;48.328;10.096;2024-02-28T09:02:08;6.00;99.90
45549;DHT22;31270;48.328;10.096;2024-02-28T09:04:36;6.00;99.90
45549;DHT22;31270;48.328;10.096;2024-02-28T09:07:02;5.90;99.90
45549;DHT22;31270;48.328;10.096;2024-02-28T09:09:28;6.10;99.90
45549;DHT22;31270;48.328;10.096;2024-02-28T09:11:55;6.10;99.90
45549;DHT22;31270;48.328;10.096;2024-02-28T09:14:21;6.20;99.90
45549;DHT22;31270;48.328;10.096;2024-02-28T09:16:47;6.10;99.90
45549;DHT22;31270;48.328;10.096;2024-02-28T09:19:13;6.20;99.90
45549;DHT22;31270;48.328;10.096;2024-02-28T09:21:38;6.20;99.90
45549;DHT22;31270;48.328;10.096;2024-02-28T09:24:04;6.20;99.90
45549;DHT22;31270;48.328;10.096;2024-02-28T09:26:30;6.30;99.90
45549;DHT22;31270;48.328;10.096;2024-02-28T09:28:56;6.30;99.90
45549;DHT22;31270;48.328;10.096;2024-02-28T09:31:21;6.30;99.90
45549;DHT22;31270;48.328;10.096;2024-02-28T09:33:47;6.30;99.90
45549;DHT22;31270;48.328;10.096;2024-02-28T09:36:14;6.30;99.90
45549;DHT22;31270;48.328;10.096;2024-02-28T09:38:40;6.30;99.90
45549;DHT22;31270;48.328;10.096;2024-02-28T09:41:06;6.40;99.90
45549;DHT22;31270;48.328;10.096;2024-02-28T09:43:40;6.50;99.90
45549;DHT22;31270;48.328;10.096;2024-02-28T09:46:07;6.50;99.90
45549;DHT22;31270;48.328;10.096;2024-02-28T09:48:36;6.50;99.90
45549;DHT22;31270;48.328;10.096;2024-02-28T09:51:03;6.60;99.90
45549;DHT22;31270;48.328;10.096;2024-02-28T09:53:29;6.70;99.90
45549;DHT22;31270;48.328;10.096;2024-02-28T09:56:01;6.90;99.90
45549;DHT22;31270;48.328;10.096;2024-02-28T09:58:28;6.80;99.90
45549;DHT22;31270;48.328;10.096;2024-02-28T10:01:02;6.80;99.90
45549;DHT22;31270;48.328;10.096;2024-02-28T10:03:31;6.80;99.90
45549;DHT22;31270;48.328;10.096;2024-02-28T10:05:57;6.90;99.90
45549;DHT22;31270;48.328;10.096;2024-02-28T10:08:23;7.00;99.90
45549;DHT22;31270;48.328;10.096;2024-02-28T10:10:49;7.30;99.90
45549;DHT22;31270;48.328;10.096;2024-02-28T10:13:18;7.10;99.90
45549;DHT22;31270;48.328;10.096;2024-02-28T10:15:44;7.20;99.90
45549;DHT22;31270;48.328;10.096;2024-02-28T10:18:10;7.20;99.90
45549;DHT22;31270;48.328;10.096;2024-02-28T10:20:36;7.20;99.90
45549;DHT22;31270;48.328;10.096;2024-02-28T10:23:05;7.20;99.90
45549;DHT22;31270;48.328;10.096;2024-02-28T10:25:45;7.20;99.90
45549;DHT22;31270;48.328;10.096;2024-02-28T10:28:11;7.20;99.90
45549;DHT22;31270;48.328;10.096;2024-02-28T10:30:41;7.20;99.90
45549;DHT22;31270;48.328;10.096;2024-02-28T10:33:14;7.20;99.90
45549;DHT22;31270;48.328;10.096;2024-02-28T10:35:41;7.20;99.90
45549;DHT22;31270;48.328;10.096;2024-02-28T10:38:11;7.30;99.90
45549;DHT22;31270;48.328;10.096;2024-02-28T10:40:40;7.30;99.90
45549;DHT22;31270;48.328;10.096;2024-02-28T10:43:11;7.30;99.90
45549;DHT22;31270;48.328;10.096;2024-02-28T10:45:38;7.40;99.90
45549;DHT22;31270;48.328;10.096;2024-02-28T10:48:05;7.60;99.90
45549;DHT22;31270;48.328;10.096;2024-02-28T10:50:31;7.60;99.90
45549;DHT22;31270;48.328;10.096;2024-02-28T10:53:01;7.50;99.90
45549;DHT22;31270;48.328;10.096;2024-02-28T10:55:33;7.50;99.90
45549;DHT22;31270;48.328;10.096;2024-02-28T10:58:07;7.60;99.90
45549;DHT22;31270;48.328;10.096;2024-02-28T11:00:34;7.40;99.90
45549;DHT22;31270;48.328;10.096;2024-02-28T11:03:01;7.40;99.90
45549;DHT22;31270;48.328;10.096;2024-02-28T11:05:41;7.40;99.90
45549;DHT22;31270;48.328;10.096;2024-02-28T11:08:10;7.40;99.90
45549;DHT22;31270;48.328;10.096;2024-02-28T11:10:45;7.40;99.90
45549;DHT22;31270;48.328;10.096;2024-02-28T11:13:24;7.50;99.90
45549;DHT22;31270;48.328;10.096;2024-02-28T11:15:50;7.40;99.90
45549;DHT22;31270;48.328;10.096;2024-02-28T11:18:16;7.40;99.90
45549;DHT22;31270;48.328;10.096;2024-02-28T11:20:43;7.40;99.90
45549;DHT22;31270;48.328;10.096;2024-02-28T11:23:12;7.50;99.90
45549;DHT22;31270;48.328;10.096;2024-02-28T11:25:40;7.50;99.90
45549;DHT22;31270;48.328;10.096;2024-02-28T11:28:05;7.70;99.90
45549;DHT22;31270;48.328;10.096;2024-02-28T11:30:32;7.60;99.90
45549;DHT22;31270;48.328;10.096;2024-02-28T11:32:58;7.80;99.90
45549;DHT22;31270;48.328;10.096;2024-02-28T11:35:26;7.80;99.90
45549;DHT22;31270;48.328;10.096;2024-02-28T11:37:54;7.70;99.90
45549;DHT22;31270;48.328;10.096;2024-02-28T11:40:23;7.70;99.90
45549;DHT22;31270;48.328;10.096;2024-02-28T11:42:51;7.70;99.90
45549;DHT22;31270;48.328;10.096;2024-02-28T11:45:16;7.80;99.90
45549;DHT22;31270;48.328;10.096;2024-02-28T11:47:42;8.00;99.90
45549;DHT22;31270;48.328;10.096;2024-02-28T11:50:08;8.00;99.90
45549;DHT22;31270;48.328;10.096;2024-02-28T11:52:34;8.10;99.90
45549;DHT22;31270;48.328;10.096;2024-02-28T11:54:59;8.00;99.90
45549;DHT22;31270;48.328;10.096;2024-02-28T11:57:28;8.10;99.90
45549;DHT22;31270;48.328;10.096;2024-02-28T11:59:56;8.20;99.90
45549;DHT22;31270;48.328;10.096;2024-02-28T12:02:23;8.50;99.90
45549;DHT22;31270;48.328;10.096;2024-02-28T12:04:52;8.40;99.90
45549;DHT22;31270;48.328;10.096;2024-02-28T12:07:19;8.50;99.90
45549;DHT22;31270;48.328;10.096;2024-02-28T12:09:46;8.30;99.90
45549;DHT22;31270;48.328;10.096;2024-02-28T12:12:13;8.50;99.90
45549;DHT22;31270;48.328;10.096;2024-02-28T12:14:46;8.60;99.90
45549;DHT22;31270;48.328;10.096;2024-02-28T12:17:16;8.80;99.90
45549;DHT22;31270;48.328;10.096;2024-02-28T12:19:42;8.90;99.90
45549;DHT22;31270;48.328;10.096;2024-02-28T12:22:09;8.90;99.90
45549;DHT22;31270;48.328;10.096;2024-02-28T12:24:34;9.00;99.90
45549;DHT22;31270;48.328;10.096;2024-02-28T12:27:00;9.20;99.90
45549;DHT22;31270;48.328;10.096;2024-02-28T12:29:26;9.30;99.90
45549;DHT22;31270;48.328;10.096;2024-02-28T12:31:51;9.20;99.90
45549;DHT22;31270;48.328;10.096;2024-02-28T12:34:17;9.20;99.90
45549;DHT22;31270;48.328;10.096;2024-02-28T12:36:42;9.10;99.90
45549;DHT22;31270;48.328;10.096;2024-02-28T12:39:08;9.10;99.90
45549;DHT22;31270;48.328;10.096;2024-02-28T12:41:37;9.00;99.90
45549;DHT22;31270;48.328;10.096;2024-02-28T12:44:06;8.80;99.90
45549;DHT22;31270;48.328;10.096;2024-02-28T12:46:36;9.00;99.90
45549;DHT22;31270;48.328;10.096;2024-02-28T12:49:01;9.00;99.90
45549;DHT22;31270;48.328;10.096;2024-02-28T12:51:43;9.30;99.90
45549;DHT22;31270;48.328;10.096;2024-02-28T12:54:13;9.50;99.90
45549;DHT22;31270;48.328;10.096;2024-02-28T12:56:42;9.50;99.90
45549;DHT22;31270;48.328;10.096;2024-02-28T12:59:10;9.50;99.90
45549;DHT22;31270;48.328;10.096;2024-02-28T13:01:36;9.40;99.90
45549;DHT22;31270;48.328;10.096;2024-02-28T13:04:02;9.10;99.90
45549;DHT22;31270;48.328;10.096;2024-02-28T13:06:28;9.00;99.90
45549;DHT22;31270;48.328;10.096;2024-02-28T13:08:54;9.00;99.90
45549;DHT22;31270;48.328;10.096;2024-02-28T13:11:22;9.00;99.90
45549;DHT22;31270;48.328;10.096;2024-02-28T13:13:49;9.10;99.90
45549;DHT22;31270;48.328;10.096;2024-02-28T13:16:16;9.00;99.90
45549;DHT22;31270;48.328;10.096;2024-02-28T13:18:42;8.90;99.90
45549;DHT22;31270;48.328;10.096;2024-02-28T13:21:08;9.00;99.90
45549;DHT22;31270;48.328;10.096;2024-02-28T13:23:34;9.10;99.90
45549;DHT22;31270;48.328;10.096;2024-02-28T13:26:01;9.20;99.90
45549;DHT22;31270;48.328;10.096;2024-02-28T13:28:27;9.40;99.90
45549;DHT22;31270;48.328;10.096;2024-02-28T13:30:59;9.50;99.90
45549;DHT22;31270;48.328;10.096;2024-02-28T13:33:26;9.60;99.90
45549;DHT22;31270;48.328;10.096;2024-02-28T13:35:54;9.50;99.90
45549;DHT22;31270;48.328;10.096;2024-02-28T13:38:20;9.40;99.90
45549;DHT22;31270;48.328;10.096;2024-02-28T13:40:46;9.30;99.90
45549;DHT22;31270;48.328;10.096;2024-02-28T13:46:35;9.10;99.90
45549;DHT22;31270;48.328;10.096;2024-02-28T13:49:00;9.10;99.90
45549;DHT22;31270;48.328;10.096;2024-02-28T13:51:26;9.00;99.90
45549;DHT22;31270;48.328;10.096;2024-02-28T13:53:52;9.00;99.90
45549;DHT22;31270;48.328;10.096;2024-02-28T13:56:19;9.10;99.90
45549;DHT22;31270;48.328;10.096;2024-02-28T13:58:45;8.90;99.90
45549;DHT22;31270;48.328;10.096;2024-02-28T14:01:12;8.80;99.90
45549;DHT22;31270;48.328;10.096;2024-02-28T14:03:37;8.80;99.90
45549;DHT22;31270;48.328;10.096;2024-02-28T14:06:04;8.70;99.90
45549;DHT22;31270;48.328;10.096;2024-02-28T14:08:29;8.60;99.90
45549;DHT22;31270;48.328;10.096;2024-02-28T14:10:55;8.40;99.90
45549;DHT22;31270;48.328;10.096;2024-02-28T14:13:21;8.20;99.90
45549;DHT22;31270;48.328;10.096;2024-02-28T14:15:47;8.30;99.90
45549;DHT22;31270;48.328;10.096;2024-02-28T14:18:12;8.10;99.90
45549;DHT22;31270;48.328;10.096;2024-02-28T14:20:38;8.10;99.90
45549;DHT22;31270;48.328;10.096;2024-02-28T14:23:04;8.10;99.90
45549;DHT22;31270;48.328;10.096;2024-02-28T14:25:30;8.00;99.90
45549;DHT22;31270;48.328;10.096;2024-02-28T14:27:56;7.90;99.90
45549;DHT22;31270;48.328;10.096;2024-02-28T14:30:22;8.00;99.90
45549;DHT22;31270;48.328;10.096;2024-02-28T14:32:49;8.00;99.90
45549;DHT22;31270;48.328;10.096;2024-02-28T14:35:15;8.00;99.90
45549;DHT22;31270;48.328;10.096;2024-02-28T14:37:41;8.00;99.90
45549;DHT22;31270;48.328;10.096;2024-02-28T14:40:08;7.90;99.90
45549;DHT22;31270;48.328;10.096;2024-02-28T14:42:37;7.90;99.90
45549;DHT22;31270;48.328;10.096;2024-02-28T14:45:08;7.80;99.90
45549;DHT22;31270;48.328;10.096;2024-02-28T14:47:39;7.80;99.90
45549;DHT22;31270;48.328;10.096;2024-02-28T14:50:05;7.80;99.90
45549;DHT22;31270;48.328;10.096;2024-02-28T14:52:31;7.70;99.90
45549;DHT22;31270;48.328;10.096;2024-02-28T14:54:57;7.70;99.90
45549;DHT22;31270;48.328;10.096;2024-02-28T14:57:23;7.70;99.90
45549;DHT22;31270;48.328;10.096;2024-02-28T14:59:49;7.80;99.90
45549;DHT22;31270;48.328;10.096;2024-02-28T15:02:14;7.80;99.90
45549;DHT22;31270;48.328;10.096;2024-02-28T15:04:40;7.90;99.90
45549;DHT22;31270;48.328;10.096;2024-02-28T15:07:06;7.80;99.90
45549;DHT22;31270;48.328;10.096;2024-02-28T15:09:32;7.70;99.90
45549;DHT22;31270;48.328;10.096;2024-02-28T15:11:59;7.60;99.90
45549;DHT22;31270;48.328;10.096;2024-02-28T15:14:25;7.60;99.90
45549;DHT22;31270;48.328;10.096;2024-02-28T15:16:51;7.60;99.90
45549;DHT22;31270;48.328;10.096;2024-02-28T15:19:20;7.50;99.90
45549;DHT22;31270;48.328;10.096;2024-02-28T15:21:46;7.40;99.90
45549;DHT22;31270;48.328;10.096;2024-02-28T15:24:11;7.40;99.90
45549;DHT22;31270;48.328;10.096;2024-02-28T15:26:38;7.40;99.90
45549;DHT22;31270;48.328;10.096;2024-02-28T15:29:03;7.40;99.90